Icarus — D5AX3 — position and weather

sailwx.info

Track history (hours):
 
Tides and Currents Weather Stations Pressure Air Temp Water Temp Dewpoint Dewpoint Depression Visibility Wind Speed Wind Dir Waves Ship Positions

Icarus

Last reported at 2014-Sep-23 09:33 UTC. Time now 2014-Oct-02 02:30 UTC.
Position N 41°21' E 029°14'.
Warning: this ship's position is 8 days out of date.

Length 225 m; draft 7.6 m.

Type: Cargo ship. MMSI: 636015464.

Date/timePositionNaut miles runAvg speedWind from/ knotsBaromVisibWave heightAir tempDewpointWater temp
2014-Sep-23 09:33N 41°21' E 029°14'2310.1
2014-Sep-23 07:14N 40°60' E 028°60'5 7.6
2014-Sep-23 06:32N 40°55' E 028°58'6 6.1
2014-Sep-23 05:33N 40°49' E 028°59'0 0.5
2014-Sep-23 04:33N 40°49' E 028°60'1 0.5
2014-Sep-23 03:33N 40°48' E 029°00'1 0.6
2014-Sep-23 02:33N 40°48' E 028°60'0 0.5
2014-Sep-23 01:33N 40°47' E 028°59'1 0.8
2014-Sep-23 00:33N 40°48' E 028°58'2 1.9
2014-Sep-22 23:31N 40°49' E 028°56'2 1.8
2014-Sep-22 22:33N 40°49' E 028°54'7 6.9
2014-Sep-22 21:33N 40°49' E 028°45'234 6.5
2014-Sep-21 09:16N 37°45' E 025°37'911.8
2014-Sep-21 08:31N 37°36' E 025°41'1111.8
2014-Sep-21 07:33N 37°26' E 025°45'1111.0
2014-Sep-21 06:33N 37°15' E 025°50'1110.5
2014-Sep-21 05:33N 37°07' E 025°58'1110.8
2014-Sep-21 04:33N 37°00' E 026°09'1110.3
2014-Sep-21 03:28N 36°52' E 026°19'1010.9
2014-Sep-21 02:33N 36°45' E 026°27'1210.9
2014-Sep-21 01:25N 36°35' E 026°37'1311.3
2014-Sep-21 00:14N 36°25' E 026°48'711.2
2014-Sep-20 23:34N 36°20' E 026°54'  
2014-Sep-17 02:27N 32°38' E 031°43'2 0.8
2014-Sep-17 00:21N 32°39' E 031°43'10 0.9
2014-Sep-16 13:31N 32°30' E 031°41'  
Track history (hours):
 
Tides and Currents Weather Stations Pressure Air Temp Water Temp Dewpoint Dewpoint Depression Visibility Wind Speed Wind Dir Waves Ship Positions

Icarus

Last reported at 2014-Sep-23 09:33 UTC. Time now 2014-Oct-02 02:30 UTC.
Position N 41°21' E 029°14'.
Warning: this ship's position is 8 days out of date.

Length 225 m; draft 7.6 m.

Type: Cargo ship. MMSI: 636015464.

Date/timePositionNaut miles runAvg speedWind from/ knotsBaromVisibWave heightAir tempDewpointWater temp
2014-Sep-23 09:33N 41°21' E 029°14'2310.1
2014-Sep-23 07:14N 40°60' E 028°60'5 7.6
2014-Sep-23 06:32N 40°55' E 028°58'6 6.1
2014-Sep-23 05:33N 40°49' E 028°59'0 0.5
2014-Sep-23 04:33N 40°49' E 028°60'1 0.5
2014-Sep-23 03:33N 40°48' E 029°00'1 0.6
2014-Sep-23 02:33N 40°48' E 028°60'0 0.5
2014-Sep-23 01:33N 40°47' E 028°59'1 0.8
2014-Sep-23 00:33N 40°48' E 028°58'2 1.9
2014-Sep-22 23:31N 40°49' E 028°56'2 1.8
2014-Sep-22 22:33N 40°49' E 028°54'7 6.9
2014-Sep-22 21:33N 40°49' E 028°45'234 6.5
2014-Sep-21 09:16N 37°45' E 025°37'911.8
2014-Sep-21 08:31N 37°36' E 025°41'1111.8
2014-Sep-21 07:33N 37°26' E 025°45'1111.0
2014-Sep-21 06:33N 37°15' E 025°50'1110.5
2014-Sep-21 05:33N 37°07' E 025°58'1110.8
2014-Sep-21 04:33N 37°00' E 026°09'1110.3
2014-Sep-21 03:28N 36°52' E 026°19'1010.9
2014-Sep-21 02:33N 36°45' E 026°27'1210.9
2014-Sep-21 01:25N 36°35' E 026°37'1311.3
2014-Sep-21 00:14N 36°25' E 026°48'711.2
2014-Sep-20 23:34N 36°20' E 026°54'  
2014-Sep-17 02:27N 32°38' E 031°43'2 0.8
2014-Sep-17 00:21N 32°39' E 031°43'10 0.9
2014-Sep-16 13:31N 32°30' E 031°41'  

Dump ship's entire track history